sensor_id;sensor_type;location;lat;lon;timestamp;P1;durP1;ratioP1;P2;durP2;ratioP2
6249;SDS011;3158;52.148;11.568;2023-06-04T00:03:16;0.70;;;0.70;;
6249;SDS011;3158;52.148;11.568;2023-06-04T00:08:17;0.85;;;0.80;;
6249;SDS011;3158;52.148;11.568;2023-06-04T00:13:18;1.20;;;0.70;;
6249;SDS011;3158;52.148;11.568;2023-06-04T00:18:20;0.77;;;0.77;;
6249;SDS011;3158;52.148;11.568;2023-06-04T00:23:21;0.77;;;0.77;;
6249;SDS011;3158;52.148;11.568;2023-06-04T00:28:22;1.98;;;1.00;;
6249;SDS011;3158;52.148;11.568;2023-06-04T00:33:23;1.10;;;1.00;;
6249;SDS011;3158;52.148;11.568;2023-06-04T00:38:24;1.08;;;0.93;;
6249;SDS011;3158;52.148;11.568;2023-06-04T00:43:25;1.08;;;0.90;;
6249;SDS011;3158;52.148;11.568;2023-06-04T00:48:27;2.42;;;1.02;;
6249;SDS011;3158;52.148;11.568;2023-06-04T00:53:28;0.93;;;0.93;;
6249;SDS011;3158;52.148;11.568;2023-06-04T00:58:29;0.80;;;0.80;;
6249;SDS011;3158;52.148;11.568;2023-06-04T01:03:30;0.80;;;0.80;;
6249;SDS011;3158;52.148;11.568;2023-06-04T01:08:33;0.90;;;0.90;;
6249;SDS011;3158;52.148;11.568;2023-06-04T01:13:34;1.00;;;0.90;;
6249;SDS011;3158;52.148;11.568;2023-06-04T01:18:35;2.65;;;0.77;;
6249;SDS011;3158;52.148;11.568;2023-06-04T01:23:45;1.50;;;0.60;;
6249;SDS011;3158;52.148;11.568;2023-06-04T01:28:47;0.60;;;0.60;;
6249;SDS011;3158;52.148;11.568;2023-06-04T01:33:52;1.10;;;0.70;;
6249;SDS011;3158;52.148;11.568;2023-06-04T01:38:53;0.70;;;0.70;;
6249;SDS011;3158;52.148;11.568;2023-06-04T01:43:55;0.60;;;0.60;;
6249;SDS011;3158;52.148;11.568;2023-06-04T01:48:56;0.73;;;0.60;;
6249;SDS011;3158;52.148;11.568;2023-06-04T01:53:57;0.93;;;0.65;;
6249;SDS011;3158;52.148;11.568;2023-06-04T01:58:58;1.10;;;0.63;;
6249;SDS011;3158;52.148;11.568;2023-06-04T02:04:01;0.60;;;0.60;;
6249;SDS011;3158;52.148;11.568;2023-06-04T02:09:02;0.60;;;0.60;;
6249;SDS011;3158;52.148;11.568;2023-06-04T02:14:03;0.70;;;0.70;;
6249;SDS011;3158;52.148;11.568;2023-06-04T02:19:04;1.50;;;0.60;;
6249;SDS011;3158;52.148;11.568;2023-06-04T02:24:06;2.50;;;0.90;;
6249;SDS011;3158;52.148;11.568;2023-06-04T02:29:07;2.17;;;0.70;;
6249;SDS011;3158;52.148;11.568;2023-06-04T02:34:08;0.50;;;0.50;;
6249;SDS011;3158;52.148;11.568;2023-06-04T02:39:09;0.55;;;0.45;;
6249;SDS011;3158;52.148;11.568;2023-06-04T02:44:10;0.98;;;0.82;;
6249;SDS011;3158;52.148;11.568;2023-06-04T02:49:12;0.60;;;0.60;;
6249;SDS011;3158;52.148;11.568;2023-06-04T02:54:14;0.50;;;0.50;;
6249;SDS011;3158;52.148;11.568;2023-06-04T02:59:15;0.50;;;0.50;;
6249;SDS011;3158;52.148;11.568;2023-06-04T03:04:16;1.73;;;0.43;;
6249;SDS011;3158;52.148;11.568;2023-06-04T03:09:18;0.63;;;0.63;;
6249;SDS011;3158;52.148;11.568;2023-06-04T03:14:19;0.60;;;0.60;;
6249;SDS011;3158;52.148;11.568;2023-06-04T03:19:21;3.70;;;0.50;;
6249;SDS011;3158;52.148;11.568;2023-06-04T03:24:22;0.98;;;0.63;;
6249;SDS011;3158;52.148;11.568;2023-06-04T03:29:23;0.50;;;0.50;;
6249;SDS011;3158;52.148;11.568;2023-06-04T03:34:25;1.15;;;0.60;;
6249;SDS011;3158;52.148;11.568;2023-06-04T03:39:27;0.47;;;0.47;;
6249;SDS011;3158;52.148;11.568;2023-06-04T03:44:29;1.25;;;0.70;;
6249;SDS011;3158;52.148;11.568;2023-06-04T03:49:30;0.55;;;0.50;;
6249;SDS011;3158;52.148;11.568;2023-06-04T03:54:32;0.98;;;0.60;;
6249;SDS011;3158;52.148;11.568;2023-06-04T03:59:33;1.20;;;0.60;;
6249;SDS011;3158;52.148;11.568;2023-06-04T04:04:35;0.70;;;0.70;;
6249;SDS011;3158;52.148;11.568;2023-06-04T04:09:36;0.60;;;0.60;;
6249;SDS011;3158;52.148;11.568;2023-06-04T04:14:38;0.73;;;0.60;;
6249;SDS011;3158;52.148;11.568;2023-06-04T04:19:39;0.60;;;0.60;;
6249;SDS011;3158;52.148;11.568;2023-06-04T04:24:40;0.70;;;0.70;;
6249;SDS011;3158;52.148;11.568;2023-06-04T04:29:42;0.73;;;0.73;;
6249;SDS011;3158;52.148;11.568;2023-06-04T04:34:51;4.03;;;0.70;;
6249;SDS011;3158;52.148;11.568;2023-06-04T04:39:55;0.73;;;0.73;;
6249;SDS011;3158;52.148;11.568;2023-06-04T04:44:59;0.50;;;0.50;;
6249;SDS011;3158;52.148;11.568;2023-06-04T04:50:01;3.97;;;1.00;;
6249;SDS011;3158;52.148;11.568;2023-06-04T04:55:02;1.20;;;0.80;;
6249;SDS011;3158;52.148;11.568;2023-06-04T05:00:06;1.10;;;1.00;;
6249;SDS011;3158;52.148;11.568;2023-06-04T05:05:10;1.75;;;0.68;;
6249;SDS011;3158;52.148;11.568;2023-06-04T05:10:13;4.00;;;1.08;;
6249;SDS011;3158;52.148;11.568;2023-06-04T05:15:15;1.48;;;0.85;;
6249;SDS011;3158;52.148;11.568;2023-06-04T05:20:19;0.70;;;0.70;;
6249;SDS011;3158;52.148;11.568;2023-06-04T05:25:21;0.95;;;0.90;;
6249;SDS011;3158;52.148;11.568;2023-06-04T05:30:22;0.80;;;0.80;;
6249;SDS011;3158;52.148;11.568;2023-06-04T05:35:24;1.05;;;0.82;;
6249;SDS011;3158;52.148;11.568;2023-06-04T05:40:25;0.98;;;0.98;;
6249;SDS011;3158;52.148;11.568;2023-06-04T05:45:27;1.13;;;0.77;;
6249;SDS011;3158;52.148;11.568;2023-06-04T05:50:28;1.38;;;1.27;;
6249;SDS011;3158;52.148;11.568;2023-06-04T05:55:30;0.98;;;0.98;;
6249;SDS011;3158;52.148;11.568;2023-06-04T06:00:32;1.70;;;0.98;;
6249;SDS011;3158;52.148;11.568;2023-06-04T06:05:33;0.77;;;0.77;;
6249;SDS011;3158;52.148;11.568;2023-06-04T06:10:35;0.82;;;0.82;;
6249;SDS011;3158;52.148;11.568;2023-06-04T06:15:36;9.95;;;1.10;;
6249;SDS011;3158;52.148;11.568;2023-06-04T06:20:38;5.28;;;1.00;;
6249;SDS011;3158;52.148;11.568;2023-06-04T06:25:39;1.45;;;0.93;;
6249;SDS011;3158;52.148;11.568;2023-06-04T06:30:46;1.55;;;1.00;;
6249;SDS011;3158;52.148;11.568;2023-06-04T06:35:48;0.90;;;0.90;;
6249;SDS011;3158;52.148;11.568;2023-06-04T06:40:49;7.38;;;0.82;;
6249;SDS011;3158;52.148;11.568;2023-06-04T06:45:50;0.90;;;0.90;;
6249;SDS011;3158;52.148;11.568;2023-06-04T06:50:51;1.35;;;0.90;;
6249;SDS011;3158;52.148;11.568;2023-06-04T06:55:52;0.90;;;0.90;;
6249;SDS011;3158;52.148;11.568;2023-06-04T07:00:53;1.00;;;0.63;;
6249;SDS011;3158;52.148;11.568;2023-06-04T07:05:56;0.82;;;0.80;;
6249;SDS011;3158;52.148;11.568;2023-06-04T07:10:57;0.70;;;0.70;;
6249;SDS011;3158;52.148;11.568;2023-06-04T07:15:59;0.93;;;0.70;;
6249;SDS011;3158;52.148;11.568;2023-06-04T07:21:00;1.30;;;0.90;;
6249;SDS011;3158;52.148;11.568;2023-06-04T07:26:01;1.30;;;0.68;;
6249;SDS011;3158;52.148;11.568;2023-06-04T07:31:02;0.95;;;0.70;;
6249;SDS011;3158;52.148;11.568;2023-06-04T07:36:03;0.73;;;0.70;;
6249;SDS011;3158;52.148;11.568;2023-06-04T07:41:05;1.58;;;0.68;;
6249;SDS011;3158;52.148;11.568;2023-06-04T07:46:06;1.75;;;0.50;;
6249;SDS011;3158;52.148;11.568;2023-06-04T07:51:07;1.27;;;0.60;;
6249;SDS011;3158;52.148;11.568;2023-06-04T07:56:08;0.45;;;0.45;;
6249;SDS011;3158;52.148;11.568;2023-06-04T08:01:09;0.40;;;0.40;;
6249;SDS011;3158;52.148;11.568;2023-06-04T08:06:10;0.75;;;0.50;;
6249;SDS011;3158;52.148;11.568;2023-06-04T08:11:15;1.27;;;0.43;;
6249;SDS011;3158;52.148;11.568;2023-06-04T08:16:16;1.10;;;0.40;;
6249;SDS011;3158;52.148;11.568;2023-06-04T08:27:36;0.50;;;0.50;;
6249;SDS011;3158;52.148;11.568;2023-06-04T08:32:37;0.55;;;0.40;;
6249;SDS011;3158;52.148;11.568;2023-06-04T08:38:10;0.40;;;0.40;;
6249;SDS011;3158;52.148;11.568;2023-06-04T08:44:01;0.30;;;0.30;;
6249;SDS011;3158;52.148;11.568;2023-06-04T08:55:38;0.30;;;0.30;;
6249;SDS011;3158;52.148;11.568;2023-06-04T09:00:39;0.40;;;0.40;;
6249;SDS011;3158;52.148;11.568;2023-06-04T09:05:40;0.30;;;0.30;;
6249;SDS011;3158;52.148;11.568;2023-06-04T09:10:48;0.40;;;0.40;;
6249;SDS011;3158;52.148;11.568;2023-06-04T09:16:02;0.73;;;0.40;;
6249;SDS011;3158;52.148;11.568;2023-06-04T09:21:04;0.30;;;0.30;;
6249;SDS011;3158;52.148;11.568;2023-06-04T09:26:08;0.70;;;0.38;;
6249;SDS011;3158;52.148;11.568;2023-06-04T09:31:10;0.30;;;0.30;;
6249;SDS011;3158;52.148;11.568;2023-06-04T09:36:11;0.30;;;0.30;;
6249;SDS011;3158;52.148;11.568;2023-06-04T09:41:13;0.30;;;0.30;;
6249;SDS011;3158;52.148;11.568;2023-06-04T09:46:15;4.68;;;0.47;;
6249;SDS011;3158;52.148;11.568;2023-06-04T09:51:16;0.98;;;0.40;;
6249;SDS011;3158;52.148;11.568;2023-06-04T09:56:19;0.20;;;0.20;;
6249;SDS011;3158;52.148;11.568;2023-06-04T10:01:21;0.85;;;0.43;;
6249;SDS011;3158;52.148;11.568;2023-06-04T10:06:23;0.63;;;0.30;;
6249;SDS011;3158;52.148;11.568;2023-06-04T10:11:30;1.95;;;0.30;;
6249;SDS011;3158;52.148;11.568;2023-06-04T10:16:32;1.95;;;0.50;;
6249;SDS011;3158;52.148;11.568;2023-06-04T10:21:33;0.30;;;0.30;;
6249;SDS011;3158;52.148;11.568;2023-06-04T10:26:37;2.85;;;0.50;;
6249;SDS011;3158;52.148;11.568;2023-06-04T10:31:40;0.30;;;0.30;;
6249;SDS011;3158;52.148;11.568;2023-06-04T10:36:42;0.40;;;0.40;;
6249;SDS011;3158;52.148;11.568;2023-06-04T10:41:44;0.40;;;0.40;;
6249;SDS011;3158;52.148;11.568;2023-06-04T10:46:45;0.75;;;0.40;;
6249;SDS011;3158;52.148;11.568;2023-06-04T10:51:47;0.80;;;0.80;;
6249;SDS011;3158;52.148;11.568;2023-06-04T10:56:48;0.40;;;0.40;;
6249;SDS011;3158;52.148;11.568;2023-06-04T11:01:49;0.30;;;0.30;;
6249;SDS011;3158;52.148;11.568;2023-06-04T11:07:00;0.30;;;0.30;;
6249;SDS011;3158;52.148;11.568;2023-06-04T11:12:03;0.43;;;0.38;;
6249;SDS011;3158;52.148;11.568;2023-06-04T11:17:11;0.30;;;0.30;;
6249;SDS011;3158;52.148;11.568;2023-06-04T11:22:12;0.40;;;0.40;;
6249;SDS011;3158;52.148;11.568;2023-06-04T11:27:13;0.85;;;0.40;;
6249;SDS011;3158;52.148;11.568;2023-06-04T11:32:24;0.35;;;0.35;;
6249;SDS011;3158;52.148;11.568;2023-06-04T11:37:25;4.57;;;0.40;;
6249;SDS011;3158;52.148;11.568;2023-06-04T11:42:30;0.35;;;0.35;;
6249;SDS011;3158;52.148;11.568;2023-06-04T11:47:31;5.03;;;0.40;;
6249;SDS011;3158;52.148;11.568;2023-06-04T11:52:33;0.30;;;0.30;;
6249;SDS011;3158;52.148;11.568;2023-06-04T11:57:34;2.08;;;0.47;;
6249;SDS011;3158;52.148;11.568;2023-06-04T12:02:36;0.30;;;0.30;;
6249;SDS011;3158;52.148;11.568;2023-06-04T12:07:38;0.30;;;0.30;;
6249;SDS011;3158;52.148;11.568;2023-06-04T12:12:39;0.30;;;0.30;;
6249;SDS011;3158;52.148;11.568;2023-06-04T12:17:52;0.40;;;0.40;;
6249;SDS011;3158;52.148;11.568;2023-06-04T12:22:54;2.10;;;0.40;;
6249;SDS011;3158;52.148;11.568;2023-06-04T12:27:55;0.40;;;0.40;;
6249;SDS011;3158;52.148;11.568;2023-06-04T12:32:56;0.30;;;0.30;;
6249;SDS011;3158;52.148;11.568;2023-06-04T12:37:57;0.88;;;0.38;;
6249;SDS011;3158;52.148;11.568;2023-06-04T12:42:58;0.40;;;0.40;;
6249;SDS011;3158;52.148;11.568;2023-06-04T12:48:00;0.35;;;0.35;;
6249;SDS011;3158;52.148;11.568;2023-06-04T12:53:01;0.30;;;0.30;;
6249;SDS011;3158;52.148;11.568;2023-06-04T12:58:02;0.30;;;0.30;;
6249;SDS011;3158;52.148;11.568;2023-06-04T13:03:03;0.30;;;0.30;;
6249;SDS011;3158;52.148;11.568;2023-06-04T13:08:04;0.35;;;0.35;;
6249;SDS011;3158;52.148;11.568;2023-06-04T13:13:05;0.40;;;0.40;;
6249;SDS011;3158;52.148;11.568;2023-06-04T13:18:07;0.32;;;0.32;;
6249;SDS011;3158;52.148;11.568;2023-06-04T13:23:08;0.30;;;0.30;;
6249;SDS011;3158;52.148;11.568;2023-06-04T13:28:10;0.40;;;0.40;;
6249;SDS011;3158;52.148;11.568;2023-06-04T13:33:12;2.53;;;0.30;;
6249;SDS011;3158;52.148;11.568;2023-06-04T13:38:13;0.40;;;0.40;;
6249;SDS011;3158;52.148;11.568;2023-06-04T13:43:14;0.30;;;0.30;;
6249;SDS011;3158;52.148;11.568;2023-06-04T13:48:15;0.43;;;0.43;;
6249;SDS011;3158;52.148;11.568;2023-06-04T13:53:17;0.38;;;0.38;;
6249;SDS011;3158;52.148;11.568;2023-06-04T13:58:18;0.30;;;0.30;;
6249;SDS011;3158;52.148;11.568;2023-06-04T14:03:19;0.82;;;0.35;;
6249;SDS011;3158;52.148;11.568;2023-06-04T14:08:20;0.52;;;0.45;;
6249;SDS011;3158;52.148;11.568;2023-06-04T14:13:21;1.23;;;0.40;;
6249;SDS011;3158;52.148;11.568;2023-06-04T14:18:22;0.40;;;0.40;;
6249;SDS011;3158;52.148;11.568;2023-06-04T14:23:24;1.35;;;0.40;;
6249;SDS011;3158;52.148;11.568;2023-06-04T14:28:25;5.18;;;0.47;;
6249;SDS011;3158;52.148;11.568;2023-06-04T14:33:26;0.40;;;0.40;;
6249;SDS011;3158;52.148;11.568;2023-06-04T14:38:27;0.32;;;0.32;;
6249;SDS011;3158;52.148;11.568;2023-06-04T14:43:28;0.40;;;0.40;;
6249;SDS011;3158;52.148;11.568;2023-06-04T14:48:29;0.40;;;0.40;;
6249;SDS011;3158;52.148;11.568;2023-06-04T14:53:30;0.35;;;0.35;;
6249;SDS011;3158;52.148;11.568;2023-06-04T14:58:31;1.13;;;0.43;;
6249;SDS011;3158;52.148;11.568;2023-06-04T15:03:33;0.43;;;0.43;;
6249;SDS011;3158;52.148;11.568;2023-06-04T15:08:34;0.93;;;0.50;;
6249;SDS011;3158;52.148;11.568;2023-06-04T15:13:35;0.30;;;0.30;;
6249;SDS011;3158;52.148;11.568;2023-06-04T15:18:36;0.50;;;0.50;;
6249;SDS011;3158;52.148;11.568;2023-06-04T15:23:37;0.50;;;0.40;;
6249;SDS011;3158;52.148;11.568;2023-06-04T15:28:38;3.70;;;0.40;;
6249;SDS011;3158;52.148;11.568;2023-06-04T15:33:39;1.60;;;0.43;;
6249;SDS011;3158;52.148;11.568;2023-06-04T15:38:40;0.30;;;0.30;;
6249;SDS011;3158;52.148;11.568;2023-06-04T15:43:41;0.30;;;0.30;;
6249;SDS011;3158;52.148;11.568;2023-06-04T15:48:42;0.43;;;0.43;;
6249;SDS011;3158;52.148;11.568;2023-06-04T15:53:43;0.75;;;0.43;;
6249;SDS011;3158;52.148;11.568;2023-06-04T15:58:45;0.57;;;0.40;;
6249;SDS011;3158;52.148;11.568;2023-06-04T16:03:46;0.40;;;0.40;;
6249;SDS011;3158;52.148;11.568;2023-06-04T16:08:49;0.40;;;0.40;;
6249;SDS011;3158;52.148;11.568;2023-06-04T16:13:50;0.40;;;0.40;;
6249;SDS011;3158;52.148;11.568;2023-06-04T16:18:51;0.35;;;0.35;;
6249;SDS011;3158;52.148;11.568;2023-06-04T16:23:53;0.40;;;0.40;;
6249;SDS011;3158;52.148;11.568;2023-06-04T16:28:54;1.00;;;1.00;;
6249;SDS011;3158;52.148;11.568;2023-06-04T16:33:55;3.03;;;0.50;;
6249;SDS011;3158;52.148;11.568;2023-06-04T16:38:56;0.47;;;0.47;;
6249;SDS011;3158;52.148;11.568;2023-06-04T16:43:57;0.50;;;0.50;;
6249;SDS011;3158;52.148;11.568;2023-06-04T16:48:58;1.20;;;0.40;;
6249;SDS011;3158;52.148;11.568;2023-06-04T16:53:59;2.83;;;0.40;;
6249;SDS011;3158;52.148;11.568;2023-06-04T16:59:01;0.40;;;0.40;;
6249;SDS011;3158;52.148;11.568;2023-06-04T17:04:02;1.08;;;0.40;;
6249;SDS011;3158;52.148;11.568;2023-06-04T17:09:04;0.40;;;0.40;;
6249;SDS011;3158;52.148;11.568;2023-06-04T17:14:05;0.30;;;0.30;;
6249;SDS011;3158;52.148;11.568;2023-06-04T17:19:07;0.40;;;0.40;;
6249;SDS011;3158;52.148;11.568;2023-06-04T17:24:08;0.30;;;0.30;;
6249;SDS011;3158;52.148;11.568;2023-06-04T17:29:09;0.80;;;0.30;;
6249;SDS011;3158;52.148;11.568;2023-06-04T17:34:10;0.38;;;0.38;;
6249;SDS011;3158;52.148;11.568;2023-06-04T17:39:11;0.40;;;0.40;;
6249;SDS011;3158;52.148;11.568;2023-06-04T17:44:12;5.20;;;0.30;;
6249;SDS011;3158;52.148;11.568;2023-06-04T17:49:16;0.40;;;0.40;;
6249;SDS011;3158;52.148;11.568;2023-06-04T18:00:59;0.30;;;0.30;;
6249;SDS011;3158;52.148;11.568;2023-06-04T18:06:00;1.00;;;0.30;;
6249;SDS011;3158;52.148;11.568;2023-06-04T18:11:01;1.55;;;0.30;;
6249;SDS011;3158;52.148;11.568;2023-06-04T18:16:02;0.45;;;0.40;;
6249;SDS011;3158;52.148;11.568;2023-06-04T18:21:03;0.38;;;0.38;;
6249;SDS011;3158;52.148;11.568;2023-06-04T18:26:05;0.80;;;0.50;;
6249;SDS011;3158;52.148;11.568;2023-06-04T18:31:06;0.30;;;0.30;;
6249;SDS011;3158;52.148;11.568;2023-06-04T18:36:07;0.40;;;0.40;;
6249;SDS011;3158;52.148;11.568;2023-06-04T18:41:09;0.40;;;0.40;;
6249;SDS011;3158;52.148;11.568;2023-06-04T18:58:20;0.65;;;0.30;;
6249;SDS011;3158;52.148;11.568;2023-06-04T19:03:21;0.25;;;0.25;;
6249;SDS011;3158;52.148;11.568;2023-06-04T19:09:38;0.40;;;0.40;;
6249;SDS011;3158;52.148;11.568;2023-06-04T19:14:58;0.30;;;0.30;;
6249;SDS011;3158;52.148;11.568;2023-06-04T19:19:59;0.50;;;0.30;;
6249;SDS011;3158;52.148;11.568;2023-06-04T19:25:00;1.27;;;0.40;;
6249;SDS011;3158;52.148;11.568;2023-06-04T19:30:02;0.30;;;0.30;;
6249;SDS011;3158;52.148;11.568;2023-06-04T19:35:03;0.30;;;0.30;;
6249;SDS011;3158;52.148;11.568;2023-06-04T19:40:05;0.38;;;0.38;;
6249;SDS011;3158;52.148;11.568;2023-06-04T19:45:06;0.43;;;0.35;;
6249;SDS011;3158;52.148;11.568;2023-06-04T19:50:08;0.30;;;0.30;;
6249;SDS011;3158;52.148;11.568;2023-06-04T19:55:09;0.50;;;0.50;;
6249;SDS011;3158;52.148;11.568;2023-06-04T20:00:12;0.80;;;0.80;;
6249;SDS011;3158;52.148;11.568;2023-06-04T20:05:15;0.40;;;0.40;;
6249;SDS011;3158;52.148;11.568;2023-06-04T20:10:16;0.57;;;0.57;;
6249;SDS011;3158;52.148;11.568;2023-06-04T20:15:18;0.63;;;0.50;;
6249;SDS011;3158;52.148;11.568;2023-06-04T20:20:19;1.00;;;0.63;;
6249;SDS011;3158;52.148;11.568;2023-06-04T20:25:20;0.30;;;0.30;;
6249;SDS011;3158;52.148;11.568;2023-06-04T20:30:21;0.80;;;0.40;;
6249;SDS011;3158;52.148;11.568;2023-06-04T20:35:22;1.30;;;0.50;;
6249;SDS011;3158;52.148;11.568;2023-06-04T20:40:23;0.57;;;0.57;;
6249;SDS011;3158;52.148;11.568;2023-06-04T20:45:24;0.73;;;0.40;;
6249;SDS011;3158;52.148;11.568;2023-06-04T20:50:26;0.50;;;0.50;;
6249;SDS011;3158;52.148;11.568;2023-06-04T20:55:27;2.65;;;0.60;;
6249;SDS011;3158;52.148;11.568;2023-06-04T21:00:28;0.35;;;0.35;;
6249;SDS011;3158;52.148;11.568;2023-06-04T21:05:29;0.82;;;0.30;;
6249;SDS011;3158;52.148;11.568;2023-06-04T21:10:30;0.40;;;0.40;;
6249;SDS011;3158;52.148;11.568;2023-06-04T21:15:31;2.03;;;0.40;;
6249;SDS011;3158;52.148;11.568;2023-06-04T21:20:32;0.60;;;0.50;;
6249;SDS011;3158;52.148;11.568;2023-06-04T21:25:33;0.65;;;0.40;;
6249;SDS011;3158;52.148;11.568;2023-06-04T21:30:34;0.40;;;0.40;;
6249;SDS011;3158;52.148;11.568;2023-06-04T21:35:37;7.50;;;0.50;;
6249;SDS011;3158;52.148;11.568;2023-06-04T21:40:38;0.30;;;0.30;;
6249;SDS011;3158;52.148;11.568;2023-06-04T21:45:39;0.50;;;0.50;;
6249;SDS011;3158;52.148;11.568;2023-06-04T21:50:40;0.50;;;0.50;;
6249;SDS011;3158;52.148;11.568;2023-06-04T21:55:41;1.65;;;0.45;;
6249;SDS011;3158;52.148;11.568;2023-06-04T22:00:42;0.57;;;0.40;;
6249;SDS011;3158;52.148;11.568;2023-06-04T22:05:43;0.70;;;0.30;;
6249;SDS011;3158;52.148;11.568;2023-06-04T22:10:44;0.30;;;0.30;;
6249;SDS011;3158;52.148;11.568;2023-06-04T22:15:45;0.30;;;0.30;;
6249;SDS011;3158;52.148;11.568;2023-06-04T22:20:46;0.30;;;0.30;;
6249;SDS011;3158;52.148;11.568;2023-06-04T22:25:47;0.50;;;0.40;;
6249;SDS011;3158;52.148;11.568;2023-06-04T22:30:48;0.40;;;0.40;;
6249;SDS011;3158;52.148;11.568;2023-06-04T22:35:49;0.30;;;0.30;;
6249;SDS011;3158;52.148;11.568;2023-06-04T22:40:50;0.30;;;0.30;;
6249;SDS011;3158;52.148;11.568;2023-06-04T22:45:51;0.40;;;0.40;;
6249;SDS011;3158;52.148;11.568;2023-06-04T22:50:52;1.58;;;0.38;;
6249;SDS011;3158;52.148;11.568;2023-06-04T22:55:57;0.60;;;0.60;;
6249;SDS011;3158;52.148;11.568;2023-06-04T23:00:58;0.50;;;0.43;;
6249;SDS011;3158;52.148;11.568;2023-06-04T23:05:59;0.50;;;0.50;;
6249;SDS011;3158;52.148;11.568;2023-06-04T23:11:03;0.50;;;0.50;;
6249;SDS011;3158;52.148;11.568;2023-06-04T23:16:05;0.30;;;0.30;;
6249;SDS011;3158;52.148;11.568;2023-06-04T23:21:06;0.30;;;0.30;;
6249;SDS011;3158;52.148;11.568;2023-06-04T23:26:07;0.43;;;0.43;;
6249;SDS011;3158;52.148;11.568;2023-06-04T23:31:08;0.40;;;0.40;;
6249;SDS011;3158;52.148;11.568;2023-06-04T23:36:09;0.40;;;0.40;;
6249;SDS011;3158;52.148;11.568;2023-06-04T23:41:10;0.30;;;0.30;;
6249;SDS011;3158;52.148;11.568;2023-06-04T23:46:11;2.47;;;0.40;;
6249;SDS011;3158;52.148;11.568;2023-06-04T23:51:12;0.60;;;0.60;;
6249;SDS011;3158;52.148;11.568;2023-06-04T23:56:14;0.47;;;0.47;;
